Time;durP1;ratioP1;P1;durP2;ratioP2;P2;SDS_P1;SDS_P2;PMS_P1;PMS_P2;Temp;Humidity;BMP_temperature;BMP_pressure;BME280_temperature;BME280_humidity;BME280_pressure;Samples;Min_cycle;Max_cycle;Signal;HPM_P1;HPM_P2
2021/12/13 01:27:14;;;;;;;20.13;8.57;;;;;;;1.51;100.00;101591.13;4924199;29;20054;-95
2021/12/13 01:29:50;;;;;;;15.23;7.70;;;;;;;1.48;100.00;101589.31;4955507;28;20043;-82
2021/12/13 01:32:18;;;;;;;17.57;7.90;;;;;;;1.48;100.00;101589.31;4927716;28;20408;-81
2021/12/13 01:34:45;;;;;;;16.63;9.20;;;;;;;1.48;100.00;101597.13;4908060;29;20058;-81
2021/12/13 01:37:15;;;;;;;17.07;8.87;;;;;;;1.49;100.00;101601.50;4900642;29;20047;-80
2021/12/13 01:39:48;;;;;;;19.03;9.63;;;;;;;1.50;100.00;101595.47;4934483;29;20040;-81
2021/12/13 01:42:19;;;;;;;16.60;7.60;;;;;;;1.48;100.00;101599.75;4929871;29;20047;-81
2021/12/13 01:44:51;;;;;;;13.87;7.67;;;;;;;1.53;100.00;101605.09;4914554;29;20047;-81
2021/12/13 01:47:28;;;;;;;16.63;8.37;;;;;;;1.60;100.00;101607.94;4928913;29;20121;-81
2021/12/13 01:50:04;;;;;;;18.13;8.50;;;;;;;1.60;100.00;101601.88;4931273;29;20047;-81
2021/12/13 01:52:33;;;;;;;17.60;8.13;;;;;;;1.56;100.00;101599.97;4922357;29;20070;-83
2021/12/13 01:55:09;;;;;;;20.93;9.77;;;;;;;1.54;100.00;101594.72;4911330;29;20058;-81
2021/12/13 01:57:49;;;;;;;18.17;8.80;;;;;;;1.57;100.00;101594.81;4944271;29;20085;-82
2021/12/13 02:00:33;;;;;;;16.47;8.43;;;;;;;1.60;100.00;101605.34;4925104;29;20042;-81
2021/12/13 02:03:00;;;;;;;20.80;9.88;;;;;;;1.54;100.00;101605.16;4891662;29;20044;-83
2021/12/13 02:05:32;;;;;;;19.10;10.03;;;;;;;1.56;100.00;101605.19;4916866;29;20057;-82
2021/12/13 02:08:12;;;;;;;16.07;8.43;;;;;;;1.55;100.00;101612.13;4928297;29;20043;-83
2021/12/13 02:10:45;;;;;;;18.63;8.60;;;;;;;1.59;100.00;101607.88;4908763;29;20053;-81
2021/12/13 02:13:23;;;;;;;18.98;9.18;;;;;;;1.58;100.00;101608.72;4902913;29;20114;-80
2021/12/13 02:18:49;;;;;;;19.70;8.60;;;;;;;1.59;100.00;101606.16;4916836;29;20069;-83
2021/12/13 02:21:25;;;;;;;14.90;7.30;;;;;;;1.53;100.00;101606.00;4901555;29;20486;-82
2021/12/13 02:23:56;;;;;;;15.43;7.30;;;;;;;1.53;100.00;101600.78;4913647;29;20043;-83
2021/12/13 02:26:26;;;;;;;16.93;8.50;;;;;;;1.51;100.00;101605.03;4933184;29;20050;-81
2021/12/13 02:29:02;;;;;;;15.67;8.13;;;;;;;1.54;100.00;101607.75;4927788;29;20040;-81
2021/12/13 02:31:33;;;;;;;20.87;8.93;;;;;;;1.52;100.00;101613.75;4928829;29;20054;-81
2021/12/13 02:34:05;;;;;;;16.03;7.37;;;;;;;1.50;100.00;101618.91;4921825;29;20082;-82
2021/12/13 02:36:39;;;;;;;19.53;8.63;;;;;;;1.51;100.00;101610.25;4912264;29;20417;-81
2021/12/13 02:39:14;;;;;;;14.07;7.40;;;;;;;1.52;100.00;101621.56;4902895;29;20492;-82
2021/12/13 02:41:42;;;;;;;16.03;7.93;;;;;;;1.52;100.00;101622.47;4892390;29;20518;-81
2021/12/13 02:44:14;;;;;;;15.83;7.17;;;;;;;1.51;100.00;101620.66;4926482;29;20071;-81
2021/12/13 02:46:42;;;;;;;14.37;8.07;;;;;;;1.51;100.00;101619.78;4898500;29;20051;-82
2021/12/13 02:49:13;;;;;;;19.23;8.30;;;;;;;1.54;100.00;101620.78;4932381;29;20055;-83
2021/12/13 02:51:43;;;;;;;21.67;9.70;;;;;;;1.59;100.00;101628.72;4928730;29;20051;-81
2021/12/13 02:54:19;;;;;;;21.47;9.47;;;;;;;1.58;100.00;101611.31;4911299;29;20529;-82
2021/12/13 02:56:51;;;;;;;21.10;8.50;;;;;;;1.60;100.00;101622.69;4923818;29;20054;-83
2021/12/13 02:59:20;;;;;;;18.67;9.13;;;;;;;1.66;100.00;101630.69;4915066;29;20102;-83
2021/12/13 03:02:15;;;;;;;17.23;8.77;;;;;;;1.58;100.00;101627.84;4904040;29;20055;-81
2021/12/13 03:04:42;;;;;;;17.23;7.82;;;;;;;1.53;100.00;101632.03;4914699;23;20522;-85
2021/12/13 03:07:14;;;;;;;18.47;9.03;;;;;;;1.53;100.00;101637.25;4879093;29;20047;-85
2021/12/13 03:09:43;;;;;;;20.87;10.63;;;;;;;1.51;100.00;101631.06;4875894;29;20049;-85
2021/12/13 03:12:13;;;;;;;24.53;10.93;;;;;;;1.52;100.00;101632.88;4879395;29;20488;-84
2021/12/13 03:14:47;;;;;;;19.60;9.53;;;;;;;1.55;100.00;101632.97;4893976;29;20528;-84
2021/12/13 03:17:21;;;;;;;16.45;9.07;;;;;;;1.52;100.00;101639.81;4883803;29;20418;-84
2021/12/13 03:20:04;;;;;;;19.33;9.00;;;;;;;1.51;100.00;101624.97;4893951;29;20881;-85
2021/12/13 03:22:56;;;;;;;18.70;8.37;;;;;;;1.50;100.00;101624.09;4881394;29;20049;-86
2021/12/13 03:25:41;;;;;;;15.53;8.13;;;;;;;1.52;100.00;101630.28;4879384;29;20053;-85
2021/12/13 03:28:34;;;;;;;14.90;7.50;;;;;;;1.51;100.00;101633.69;4878666;29;20044;-86
2021/12/13 03:31:13;;;;;;;16.53;7.87;;;;;;;1.51;100.00;101627.59;4881548;29;20044;-86
2021/12/13 03:33:58;;;;;;;16.00;8.13;;;;;;;1.52;100.00;101632.88;4896640;29;20037;-86
2021/12/13 03:36:42;;;;;;;16.08;7.93;;;;;;;1.53;100.00;101644.16;4892447;29;20049;-86
2021/12/13 03:39:12;;;;;;;13.38;7.00;;;;;;;1.53;100.00;101644.16;4878236;29;20491;-85
2021/12/13 03:41:44;;;;;;;14.97;6.60;;;;;;;1.51;100.00;101645.81;4879157;29;20065;-86
2021/12/13 03:44:15;;;;;;;13.47;6.63;;;;;;;1.52;100.00;101645.91;4892760;29;20040;-87
2021/12/13 03:46:45;;;;;;;14.37;6.63;;;;;;;1.53;100.00;101650.25;4888124;29;20494;-87
2021/12/13 03:49:13;;;;;;;11.60;5.90;;;;;;;1.53;100.00;101654.59;4894199;29;20037;-85
2021/12/13 03:51:41;;;;;;;14.13;7.33;;;;;;;1.56;100.00;101649.47;4880340;29;20048;-85
2021/12/13 03:54:16;;;;;;;14.23;7.17;;;;;;;1.56;100.00;101644.25;4867699;29;20127;-85
2021/12/13 03:56:46;;;;;;;13.93;6.80;;;;;;;1.57;100.00;101651.22;4884583;29;20108;-85
2021/12/13 03:59:19;;;;;;;14.33;7.70;;;;;;;1.58;100.00;101653.00;4905795;29;20442;-85
2021/12/13 04:01:51;;;;;;;14.23;7.13;;;;;;;1.57;100.00;101646.91;4888444;29;20040;-85
2021/12/13 04:04:27;;;;;;;13.43;7.07;;;;;;;1.57;100.00;101649.50;4871508;29;20139;-85
2021/12/13 04:07:18;;;;;;;14.63;6.90;;;;;;;1.56;100.00;101646.88;4869669;29;20057;-86
2021/12/13 04:09:48;;;;;;;11.43;5.77;;;;;;;1.55;100.00;101656.41;4887695;29;20083;-85
2021/12/13 04:12:16;;;;;;;11.80;6.50;;;;;;;1.55;100.00;101651.19;4891337;29;20051;-85
2021/12/13 04:14:51;;;;;;;12.13;5.97;;;;;;;1.55;100.00;101655.50;4912819;29;20067;-85
2021/12/13 04:17:42;;;;;;;11.70;5.93;;;;;;;1.54;100.00;101667.66;4899177;29;20052;-84
2021/12/13 04:20:15;;;;;;;11.10;5.87;;;;;;;1.55;100.00;101668.53;4895584;29;20051;-84
2021/12/13 04:22:49;;;;;;;11.57;6.57;;;;;;;1.56;100.00;101676.41;4886464;29;20565;-84
2021/12/13 04:25:19;;;;;;;10.68;5.65;;;;;;;1.56;100.00;101659.88;4899964;29;20048;-84
2021/12/13 04:27:59;;;;;;;13.83;6.67;;;;;;;1.58;100.00;101663.41;4882230;29;20342;-84
2021/12/13 04:30:37;;;;;;;36.40;11.47;;;;;;;1.49;100.00;101655.31;4883370;29;20044;-86
2021/12/13 04:33:13;;;;;;;17.57;7.60;;;;;;;1.53;100.00;101654.59;4881436;29;20051;-85
2021/12/13 04:35:41;;;;;;;18.97;9.70;;;;;;;1.55;100.00;101664.22;4884743;29;20494;-84
2021/12/13 04:38:08;;;;;;;18.63;10.27;;;;;;;1.62;100.00;101667.91;4880287;29;20073;-83
2021/12/13 04:40:38;;;;;;;21.73;9.57;;;;;;;1.57;100.00;101669.47;4878902;29;20048;-84
2021/12/13 04:43:09;;;;;;;14.47;6.60;;;;;;;1.56;100.00;101668.56;4892836;29;20040;-84
2021/12/13 04:45:39;;;;;;;16.40;8.47;;;;;;;1.56;100.00;101681.59;4894672;29;20063;-83
2021/12/13 04:48:12;;;;;;;14.27;7.53;;;;;;;1.55;100.00;101673.75;4900980;29;20044;-84
2021/12/13 04:50:48;;;;;;;17.63;8.60;;;;;;;1.54;100.00;101678.06;4882458;29;20448;-85
2021/12/13 04:53:49;;;;;;;14.53;7.53;;;;;;;1.53;100.00;101678.03;4901018;29;20060;-84
2021/12/13 04:56:21;;;;;;;14.27;7.57;;;;;;;1.51;100.00;101683.16;4870783;29;20092;-85
2021/12/13 04:58:50;;;;;;;12.23;6.33;;;;;;;1.51;100.00;101683.16;4900912;29;20044;-85
2021/12/13 05:01:18;;;;;;;12.63;6.67;;;;;;;1.54;100.00;101682.41;4879806;29;20450;-85
2021/12/13 05:03:52;;;;;;;14.37;6.93;;;;;;;1.54;100.00;101683.28;4893700;29;20037;-84
2021/12/13 05:06:24;;;;;;;13.48;7.05;;;;;;;1.54;100.00;101671.97;4881767;29;20068;-85
2021/12/13 05:08:54;;;;;;;13.97;7.27;;;;;;;1.56;100.00;101672.91;4878677;29;20040;-84
2021/12/13 05:11:21;;;;;;;15.90;8.40;;;;;;;1.55;100.00;101673.75;4900603;29;20049;-84
2021/12/13 05:13:53;;;;;;;13.00;6.70;;;;;;;1.56;100.00;101673.78;4889302;29;20059;-83
2021/12/13 05:16:39;;;;;;;15.10;7.17;;;;;;;1.56;100.00;101680.72;4882633;29;20052;-84
2021/12/13 05:19:08;;;;;;;17.23;7.77;;;;;;;1.56;100.00;101683.31;4880263;29;20130;-84
2021/12/13 05:21:40;;;;;;;16.77;8.17;;;;;;;1.58;100.00;101689.47;4897353;29;20045;-85
2021/12/13 05:24:16;;;;;;;17.97;9.10;;;;;;;1.61;100.00;101685.25;4893529;29;20060;-85
2021/12/13 05:26:42;;;;;;;20.27;9.10;;;;;;;1.62;100.00;101694.84;4890728;29;20044;-85
2021/12/13 05:29:30;;;;;;;20.53;9.23;;;;;;;1.65;100.00;101691.44;4896235;29;20463;-84
2021/12/13 05:32:11;;;;;;;19.50;10.80;;;;;;;1.64;100.00;101694.88;4888419;29;20068;-84
2021/12/13 05:34:45;;;;;;;17.23;8.43;;;;;;;1.58;100.00;101705.97;4865505;29;20063;-84
2021/12/13 05:37:12;;;;;;;19.03;8.53;;;;;;;1.60;100.00;101708.66;4900835;29;20049;-86
2021/12/13 05:40:11;;;;;;;14.70;7.07;;;;;;;1.63;100.00;101713.94;4884486;29;20459;-85
2021/12/13 05:42:43;;;;;;;18.60;7.23;;;;;;;1.66;100.00;101716.63;4881410;29;20117;-85
2021/12/13 05:45:30;;;;;;;16.87;7.23;;;;;;;1.65;100.00;101718.34;4895780;29;20056;-84
2021/12/13 05:48:13;;;;;;;15.43;8.00;;;;;;;1.65;100.00;101712.28;4882336;29;20044;-85
2021/12/13 05:51:09;;;;;;;14.53;7.70;;;;;;;1.64;100.00;101718.31;4895393;29;20056;-84
2021/12/13 05:53:38;;;;;;;17.13;6.83;;;;;;;1.63;100.00;101722.66;4876424;29;20052;-84
2021/12/13 05:56:07;;;;;;;15.23;7.87;;;;;;;1.63;100.00;101716.56;4884136;29;20108;-85
2021/12/13 05:58:43;;;;;;;15.37;8.03;;;;;;;1.62;100.00;101722.59;4906388;29;20063;-83
2021/12/13 06:01:21;;;;;;;14.40;7.83;;;;;;;1.62;100.00;101717.38;4909201;29;20395;-83
2021/12/13 06:04:08;;;;;;;21.90;11.67;;;;;;;1.59;100.00;101718.16;4877305;29;20549;-84
2021/12/13 06:06:48;;;;;;;21.57;10.87;;;;;;;1.61;100.00;101718.22;4877499;29;20047;-84
2021/12/13 06:09:39;;;;;;;25.40;10.47;;;;;;;1.60;100.00;101724.28;4890168;29;20047;-84
2021/12/13 06:12:15;;;;;;;18.10;8.43;;;;;;;1.60;100.00;101721.69;4890276;29;20045;-86
2021/12/13 06:14:42;;;;;;;16.50;8.33;;;;;;;1.59;100.00;101728.56;4881264;29;20069;-84
2021/12/13 06:17:21;;;;;;;15.63;7.30;;;;;;;1.59;100.00;101731.16;4883642;29;20051;-83
2021/12/13 06:19:56;;;;;;;17.37;7.13;;;;;;;1.60;100.00;101735.56;4894685;29;20052;-85
2021/12/13 06:22:26;;;;;;;14.43;7.40;;;;;;;1.61;100.00;101734.75;4898580;29;20138;-84
2021/12/13 06:24:59;;;;;;;16.90;7.70;;;;;;;1.67;100.00;101744.44;4895480;29;20044;-85
2021/12/13 06:27:29;;;;;;;17.77;7.80;;;;;;;1.64;100.00;101744.38;4902069;29;20072;-84
2021/12/13 06:30:19;;;;;;;15.63;7.33;;;;;;;1.64;100.00;101740.03;4883581;29;20519;-84
2021/12/13 06:32:54;;;;;;;15.57;6.33;;;;;;;1.65;100.00;101738.31;4897136;29;20526;-84
2021/12/13 06:35:37;;;;;;;17.42;8.00;;;;;;;1.65;100.00;101740.91;4903557;29;20063;-84
2021/12/13 06:38:30;;;;;;;16.03;7.83;;;;;;;1.64;100.00;101742.63;4880446;29;20051;-86
2021/12/13 06:41:22;;;;;;;16.67;7.33;;;;;;;1.66;100.00;101746.19;4900616;29;20045;-84
2021/12/13 06:44:03;;;;;;;15.70;7.47;;;;;;;1.67;100.00;101757.47;4882794;29;20127;-84
2021/12/13 06:46:40;;;;;;;13.23;6.67;;;;;;;1.66;100.00;101758.31;4901717;29;20052;-84
2021/12/13 06:49:20;;;;;;;14.07;6.90;;;;;;;1.63;100.00;101764.31;4867314;29;20048;-83
2021/12/13 06:51:54;;;;;;;14.23;7.67;;;;;;;1.60;100.00;101768.56;4895955;29;20041;-84
2021/12/13 06:54:24;;;;;;;13.73;5.93;;;;;;;1.62;100.00;101772.97;4898665;29;20087;-84
2021/12/13 06:57:12;;;;;;;14.87;6.57;;;;;;;1.63;100.00;101774.75;4888929;29;20048;-84
2021/12/13 06:59:47;;;;;;;14.20;6.40;;;;;;;1.63;100.00;101772.13;4869511;29;20489;-84
2021/12/13 07:02:18;;;;;;;14.50;7.13;;;;;;;1.61;100.00;101766.00;4901488;29;20055;-85
2021/12/13 07:04:56;;;;;;;15.63;6.90;;;;;;;1.60;100.00;101777.25;4893668;29;20067;-84
2021/12/13 07:07:30;;;;;;;13.40;6.50;;;;;;;1.61;100.00;101783.34;4893040;29;20044;-85
2021/12/13 07:10:00;;;;;;;10.50;6.00;;;;;;;1.59;100.00;101790.19;4884546;29;20089;-85
2021/12/13 07:12:28;;;;;;;14.17;6.23;;;;;;;1.57;100.00;101786.66;4904226;29;20056;-85
2021/12/13 07:14:55;;;;;;;13.43;6.97;;;;;;;1.58;100.00;101783.22;4907224;29;20455;-85
2021/12/13 07:17:29;;;;;;;11.13;5.77;;;;;;;1.59;100.00;101791.09;4893778;29;20047;-84
2021/12/13 07:19:56;;;;;;;;;;;;;;;1.57;100.00;101797.97;4874863;29;20059;-85
2021/12/13 07:22:26;;;;;;;17.00;6.03;;;;;;;1.58;100.00;101786.72;4903613;29;19930;-84
2021/12/13 07:25:08;;;;;;;15.83;7.10;;;;;;;1.61;100.00;101791.16;4864685;29;20554;-84
2021/12/13 07:27:41;;;;;;;16.47;7.93;;;;;;;1.62;100.00;101798.13;4892663;29;20059;-84
2021/12/13 07:30:19;;;;;;;15.88;7.38;;;;;;;1.63;100.00;101797.28;4869753;29;20048;-85
2021/12/13 07:32:50;;;;;;;13.43;6.50;;;;;;;1.65;100.00;101806.03;4909349;29;20047;-84
2021/12/13 07:35:41;;;;;;;15.33;7.97;;;;;;;1.64;100.00;101807.75;4870772;29;20100;-86
2021/12/13 07:38:22;;;;;;;15.90;7.27;;;;;;;1.65;100.00;101806.94;4911029;29;20053;-85
2021/12/13 07:40:52;;;;;;;15.70;6.90;;;;;;;1.67;100.00;101815.66;4915535;29;20614;-83
2021/12/13 07:43:37;;;;;;;13.60;6.63;;;;;;;1.68;100.00;101821.75;4913184;29;20058;-84
2021/12/13 07:46:06;;;;;;;12.63;6.07;;;;;;;1.68;100.00;101820.06;4897942;29;20044;-84
2021/12/13 07:48:36;;;;;;;16.47;7.57;;;;;;;1.70;100.00;101820.13;4897478;29;20119;-84
2021/12/13 07:51:19;;;;;;;16.47;5.60;;;;;;;1.69;100.00;101824.44;4901680;29;20040;-85
2021/12/13 07:53:58;;;;;;;13.90;7.23;;;;;;;1.72;100.00;101817.56;4908487;29;20045;-85
2021/12/13 07:56:28;;;;;;;12.60;6.23;;;;;;;1.71;100.00;101821.00;4897875;29;20051;-86
2021/12/13 07:59:06;;;;;;;12.80;6.70;;;;;;;1.71;100.00;101814.06;4898253;29;20044;-85
2021/12/13 08:01:49;;;;;;;14.93;6.97;;;;;;;1.71;100.00;101811.47;4905829;29;20045;-85
2021/12/13 08:04:21;;;;;;;15.67;6.53;;;;;;;1.74;100.00;101821.09;4882632;29;20048;-85
2021/12/13 08:06:51;;;;;;;15.43;7.63;;;;;;;1.75;100.00;101820.25;4872050;29;20049;-84
2021/12/13 08:09:23;;;;;;;15.90;7.37;;;;;;;1.76;100.00;101809.88;4883870;29;20053;-85
2021/12/13 08:12:07;;;;;;;18.83;8.63;;;;;;;1.76;100.00;101814.22;4898280;29;20124;-85
2021/12/13 08:14:37;;;;;;;16.40;7.20;;;;;;;1.75;100.00;101821.16;4906715;29;20048;-86
2021/12/13 08:17:15;;;;;;;15.43;7.60;;;;;;;1.77;100.00;101822.09;4896565;29;20052;-86
2021/12/13 08:19:43;;;;;;;18.90;7.30;;;;;;;1.78;100.00;101823.00;4904977;29;20049;-85
2021/12/13 08:22:17;;;;;;;16.10;8.07;;;;;;;1.80;100.00;101826.53;4878756;29;20514;-85
2021/12/13 08:24:48;;;;;;;16.20;7.83;;;;;;;1.78;100.00;101826.47;4901014;29;20036;-86
2021/12/13 08:27:25;;;;;;;16.57;6.73;;;;;;;1.78;100.00;101823.88;4884940;29;20056;-87
2021/12/13 08:30:17;;;;;;;12.87;7.03;;;;;;;1.79;100.00;101828.25;4882750;29;20043;-85
2021/12/13 08:33:08;;;;;;;16.13;7.63;;;;;;;1.80;100.00;101829.13;4891323;29;20418;-86
2021/12/13 08:35:58;;;;;;;13.83;6.70;;;;;;;1.82;100.00;101827.44;4899400;29;20134;-86
2021/12/13 08:38:43;;;;;;;14.60;7.03;;;;;;;1.84;100.00;101833.59;4882232;29;20056;-86
2021/12/13 08:41:19;;;;;;;;;;;;;;;1.85;100.00;101830.16;4895717;29;20036;-86
2021/12/13 08:43:54;;;;;;;17.10;8.00;;;;;;;1.89;100.00;101832.03;4900904;29;19931;-86
2021/12/13 08:46:40;;;;;;;14.10;6.73;;;;;;;1.92;100.00;101837.34;4911906;29;20048;-85
2021/12/13 08:49:31;;;;;;;12.63;6.83;;;;;;;1.97;100.00;101839.28;4898613;29;20096;-86
2021/12/13 08:52:14;;;;;;;13.97;6.10;;;;;;;2.00;100.00;101841.09;4906180;29;20082;-87
2021/12/13 08:55:07;;;;;;;14.40;7.50;;;;;;;2.02;100.00;101830.72;4886686;29;20049;-86
2021/12/13 08:57:46;;;;;;;15.83;6.93;;;;;;;2.05;100.00;101842.16;4912030;29;20059;-86
2021/12/13 09:00:12;;;;;;;12.47;6.20;;;;;;;2.09;100.00;101844.00;4885243;29;20041;-86
2021/12/13 09:02:44;;;;;;;12.93;7.60;;;;;;;2.10;100.00;101840.59;4917674;29;20052;-87
2021/12/13 09:05:14;;;;;;;16.93;7.10;;;;;;;2.14;100.00;101844.16;4975316;23;20040;-83
2021/12/13 09:07:54;;;;;;;13.97;6.60;;;;;;;2.16;100.00;101842.50;4887660;29;20109;-82
2021/12/13 09:10:24;;;;;;;13.77;6.50;;;;;;;2.18;100.00;101835.59;4868866;29;20513;-82
2021/12/13 09:12:57;;;;;;;10.57;5.60;;;;;;;2.22;100.00;101842.69;4891920;29;20052;-81
2021/12/13 09:15:27;;;;;;;14.10;6.67;;;;;;;2.28;100.00;101842.03;4869732;29;20467;-81
2021/12/13 09:17:53;;;;;;;16.30;7.00;;;;;;;2.31;100.00;101843.00;4894348;29;20123;-81
2021/12/13 09:20:31;;;;;;;17.17;6.33;;;;;;;2.35;100.00;101841.34;4881598;29;20045;-81
2021/12/13 09:23:26;;;;;;;15.63;7.63;;;;;;;2.39;100.00;101846.72;4871985;29;20057;-80
2021/12/13 09:26:04;;;;;;;13.93;6.72;;;;;;;2.39;100.00;101846.72;4905195;29;20422;-82
2021/12/13 09:28:37;;;;;;;13.77;6.60;;;;;;;2.45;100.00;101854.75;4893822;29;20052;-81
2021/12/13 09:31:08;;;;;;;13.80;6.30;;;;;;;2.47;100.00;101853.06;4884274;29;20045;-83
2021/12/13 09:33:40;;;;;;;13.10;7.07;;;;;;;2.49;100.00;101853.13;4871166;29;20052;-81
2021/12/13 09:36:08;;;;;;;16.60;7.57;;;;;;;2.53;100.00;101849.78;4895210;29;20498;-82
2021/12/13 09:39:04;;;;;;;14.57;7.33;;;;;;;2.57;100.00;101842.91;4904581;29;20083;-82
2021/12/13 09:41:58;;;;;;;14.67;7.03;;;;;;;2.57;100.00;101850.75;4865318;29;20410;-81
2021/12/13 09:44:33;;;;;;;14.13;6.70;;;;;;;2.59;100.00;101849.94;4878962;29;20052;-80
2021/12/13 09:47:06;;;;;;;13.67;6.77;;;;;;;2.63;100.00;101849.22;4881477;29;20044;-82
2021/12/13 09:49:49;;;;;;;11.10;5.43;;;;;;;2.65;100.00;101854.47;4881677;29;20551;-82
2021/12/13 09:52:35;;;;;;;11.87;5.93;;;;;;;2.67;100.00;101851.06;4879929;29;20060;-81
2021/12/13 09:55:16;;;;;;;15.77;6.80;;;;;;;2.69;100.00;101851.09;4887477;29;20041;-81
2021/12/13 09:57:58;;;;;;;14.43;7.50;;;;;;;2.71;100.00;101850.34;4866116;29;20060;-82
2021/12/13 10:00:29;;;;;;;14.27;6.60;;;;;;;2.74;100.00;101850.44;4890325;29;20059;-82
2021/12/13 10:03:00;;;;;;;13.30;6.87;;;;;;;2.75;100.00;101840.88;4900058;29;20525;-80
2021/12/13 10:05:35;;;;;;;16.83;6.60;;;;;;;2.79;100.00;101835.81;4875938;29;20049;-83
2021/12/13 10:08:09;;;;;;;15.77;7.63;;;;;;;2.83;100.00;101836.75;4902328;29;20565;-81
2021/12/13 10:10:56;;;;;;;;;;;;;;;2.84;100.00;101841.13;4895361;29;20063;-82
2021/12/13 10:13:28;;;;;;;12.60;6.30;;;;;;;2.85;100.00;101835.06;4881146;29;19931;-82
2021/12/13 10:16:02;;;;;;;15.30;7.27;;;;;;;2.88;100.00;101842.13;4895009;29;20053;-83
2021/12/13 10:18:32;;;;;;;14.40;6.97;;;;;;;2.90;100.00;101845.66;4878081;29;20108;-83
2021/12/13 10:21:04;;;;;;;12.33;7.60;;;;;;;2.94;100.00;101842.28;4865855;29;20047;-83
2021/12/13 10:23:36;;;;;;;17.00;8.13;;;;;;;2.98;100.00;101837.22;4880914;29;20056;-82
2021/12/13 10:26:27;;;;;;;13.83;5.83;;;;;;;3.00;100.00;101826.81;4890541;29;20071;-80
2021/12/13 10:28:57;;;;;;;13.53;6.97;;;;;;;3.01;100.00;101831.19;4848834;29;20053;-81
2021/12/13 10:31:32;;;;;;;13.93;6.60;;;;;;;3.03;100.00;101826.94;4848972;29;20044;-82
2021/12/13 10:34:04;;;;;;;11.60;6.87;;;;;;;3.05;100.00;101833.06;4874047;29;20057;-82
2021/12/13 10:36:31;;;;;;;13.57;6.83;;;;;;;3.09;100.00;101834.91;4877971;29;20055;-80
2021/12/13 10:39:03;;;;;;;14.93;6.50;;;;;;;3.12;100.00;101832.41;4862001;29;20045;-83
2021/12/13 10:41:52;;;;;;;19.67;9.27;;;;;;;3.18;100.00;101832.56;4880986;29;20064;-83
2021/12/13 10:44:26;;;;;;;21.80;9.50;;;;;;;3.19;100.00;101842.16;4864695;29;20060;-81
2021/12/13 10:47:04;;;;;;;19.25;9.43;;;;;;;3.20;100.00;101841.34;4894789;29;20041;-80
2021/12/13 10:49:34;;;;;;;20.57;8.33;;;;;;;3.27;100.00;101832.81;4862329;29;20076;-79
2021/12/13 10:52:13;;;;;;;25.33;10.57;;;;;;;3.31;100.00;101837.31;4894088;29;20044;-82
2021/12/13 10:54:43;;;;;;;23.97;11.00;;;;;;;3.36;100.00;101840.03;4886314;29;20048;-82
2021/12/13 10:57:19;;;;;;;18.13;7.73;;;;;;;3.36;100.00;101833.09;4876076;29;20075;-82
2021/12/13 10:59:48;;;;;;;17.03;7.27;;;;;;;3.38;100.00;101831.41;4890935;29;20514;-81
2021/12/13 11:02:23;;;;;;;14.63;7.97;;;;;;;3.39;100.00;101841.00;4884453;29;20068;-81
2021/12/13 11:04:55;;;;;;;18.23;9.60;;;;;;;3.40;100.00;101841.91;4895991;29;20522;-83
2021/12/13 11:07:23;;;;;;;14.37;7.83;;;;;;;3.40;100.00;101839.28;4885018;29;20100;-81
2021/12/13 11:09:51;;;;;;;17.73;7.17;;;;;;;3.42;100.00;101836.72;4873466;29;20048;-80
2021/12/13 11:12:30;;;;;;;16.97;6.90;;;;;;;3.44;100.00;101837.63;4872209;29;20108;-81
2021/12/13 11:15:00;;;;;;;14.37;6.27;;;;;;;3.42;100.00;101836.72;4877684;29;20497;-81
2021/12/13 11:17:29;;;;;;;11.37;5.97;;;;;;;3.42;100.00;101834.09;4886115;29;20045;-82
2021/12/13 11:19:59;;;;;;;14.17;5.87;;;;;;;3.43;100.00;101834.13;4860209;29;20049;-81
2021/12/13 11:22:30;;;;;;;14.83;7.07;;;;;;;3.42;100.00;101832.38;4899990;29;20514;-80
2021/12/13 11:25:07;;;;;;;12.73;5.83;;;;;;;3.44;100.00;101830.66;4891027;29;20049;-82
2021/12/13 11:27:34;;;;;;;15.17;6.13;;;;;;;3.44;100.00;101816.72;4870114;29;20075;-81
2021/12/13 11:30:06;;;;;;;12.00;5.57;;;;;;;3.46;100.00;101823.78;4874289;29;20044;-81
2021/12/13 11:32:39;;;;;;;9.17;5.50;;;;;;;3.52;100.00;101821.31;4902317;29;20048;-81
2021/12/13 11:35:32;;;;;;;10.37;5.57;;;;;;;3.55;100.00;101818.81;4866981;29;20048;-80
2021/12/13 11:38:10;;;;;;;6.77;4.57;;;;;;;3.59;100.00;101838.03;4884172;29;20049;-80
2021/12/13 11:41:07;;;;;;;11.57;5.67;;;;;;;3.61;100.00;101833.75;4895332;29;20481;-81
2021/12/13 11:44:05;;;;;;;10.73;5.13;;;;;;;3.63;100.00;101843.41;4896688;29;20049;-86
2021/12/13 11:47:07;;;;;;;10.23;4.93;;;;;;;3.64;100.00;101836.47;4867746;29;20135;-82
2021/12/13 11:50:14;;;;;;;7.20;4.57;;;;;;;3.61;100.00;101839.84;4850540;29;20053;-82
2021/12/13 11:53:18;;;;;;;9.57;4.87;;;;;;;3.65;100.00;101835.59;4871224;29;20080;-82
2021/12/13 11:56:07;;;;;;;8.73;4.82;;;;;;;3.65;100.00;101835.59;4896539;29;20041;-82
2021/12/13 11:59:19;;;;;;;8.50;4.67;;;;;;;3.67;100.00;101836.53;4884557;29;20060;-83
2021/12/13 12:01:55;;;;;;;11.63;6.20;;;;;;;3.69;100.00;101837.44;4882348;29;20068;-82
2021/12/13 12:05:05;;;;;;;9.23;4.70;;;;;;;3.73;100.00;101849.75;4894205;29;20048;-82
2021/12/13 12:08:26;;;;;;;9.87;4.63;;;;;;;3.76;100.00;101836.75;4863055;29;20068;-83
2021/12/13 12:11:11;;;;;;;10.63;5.63;;;;;;;3.77;100.00;101842.88;4844579;29;20049;-83
2021/12/13 12:14:04;;;;;;;8.93;4.77;;;;;;;3.79;100.00;101833.38;4900001;29;20060;-83
2021/12/13 12:16:39;;;;;;;10.20;5.03;;;;;;;3.80;100.00;101825.56;4868552;29;20137;-83
2021/12/13 12:19:10;;;;;;;8.13;4.60;;;;;;;3.82;100.00;101830.81;4897708;29;20040;-82
2021/12/13 12:22:00;;;;;;;7.00;3.93;;;;;;;3.83;100.00;101836.09;4867860;29;20053;-83
2021/12/13 12:24:33;;;;;;;9.87;4.53;;;;;;;3.84;100.00;101824.78;4866707;29;20052;-83
2021/12/13 12:27:07;;;;;;;9.13;4.10;;;;;;;3.86;100.00;101841.38;4878072;29;20132;-83
2021/12/13 12:29:55;;;;;;;8.90;4.15;;;;;;;3.89;100.00;101841.47;4879424;29;20049;-84
2021/12/13 12:32:32;;;;;;;6.50;3.93;;;;;;;3.91;100.00;101841.50;4881275;29;20045;-84
2021/12/13 12:35:03;;;;;;;7.33;3.63;;;;;;;3.93;100.00;101838.06;4871388;29;20052;-83
2021/12/13 12:38:08;;;;;;;7.17;4.23;;;;;;;3.94;100.00;101836.34;4866750;29;20059;-83
2021/12/13 12:40:49;;;;;;;8.82;4.22;;;;;;;3.97;100.00;101839.06;4881722;29;20041;-83
2021/12/13 12:43:22;;;;;;;9.87;4.53;;;;;;;3.97;100.00;101835.56;4882707;29;20044;-85
2021/12/13 12:45:52;;;;;;;10.20;4.63;;;;;;;3.94;100.00;101837.22;4854548;29;20048;-84
2021/12/13 12:48:28;;;;;;;8.70;4.93;;;;;;;3.93;100.00;101837.19;4866745;29;20080;-85
2021/12/13 12:51:08;;;;;;;10.83;4.97;;;;;;;3.95;100.00;101835.50;4882816;29;20056;-83
2021/12/13 12:53:42;;;;;;;6.17;3.47;;;;;;;3.94;100.00;101836.34;4881949;29;20096;-84
2021/12/13 12:56:43;;;;;;;8.20;4.17;;;;;;;3.93;100.00;101831.97;4869434;29;20080;-84
2021/12/13 12:59:16;;;;;;;7.50;4.07;;;;;;;3.91;100.00;101833.66;4881971;29;20044;-83
2021/12/13 13:01:59;;;;;;;6.93;4.43;;;;;;;3.92;100.00;101840.66;4878827;29;20510;-85
2021/12/13 13:04:31;;;;;;;10.07;5.70;;;;;;;3.92;100.00;101835.44;4869851;29;20097;-83
2021/12/13 13:07:00;;;;;;;10.27;4.80;;;;;;;3.93;100.00;101838.06;4867486;29;20045;-83
2021/12/13 13:09:43;;;;;;;9.23;5.13;;;;;;;3.91;100.00;101837.16;4881466;29;20491;-85
2021/12/13 13:12:14;;;;;;;10.40;4.37;;;;;;;3.91;100.00;101833.66;4881661;29;20044;-84
2021/12/13 13:14:44;;;;;;;10.27;4.93;;;;;;;3.92;100.00;101835.44;4880093;29;20059;-84
2021/12/13 13:17:11;;;;;;;11.67;4.80;;;;;;;3.93;100.00;101834.59;4881837;29;20076;-84
2021/12/13 13:19:42;;;;;;;10.70;5.30;;;;;;;3.93;100.00;101838.06;4864180;29;20518;-84
2021/12/13 13:22:13;;;;;;;10.83;5.13;;;;;;;3.93;100.00;101834.59;4867003;29;20040;-84
2021/12/13 13:25:06;;;;;;;10.17;5.53;;;;;;;3.93;100.00;101835.47;4880784;29;20089;-84
2021/12/13 13:27:34;;;;;;;10.60;5.27;;;;;;;3.93;100.00;101835.47;4898106;29;20068;-84
2021/12/13 13:30:01;;;;;;;9.53;4.70;;;;;;;3.95;100.00;101832.88;4880859;29;20076;-84
2021/12/13 13:32:29;;;;;;;10.03;4.43;;;;;;;3.96;100.00;101834.69;4897664;29;20593;-84